sensor_id;sensor_type;location;lat;lon;timestamp;P1;durP1;ratioP1;P2;durP2;ratioP2
23720;SDS011;42950;52.134;5.578;2022-08-20T00:00:22;11.60;;;10.00;;
23720;SDS011;42950;52.134;5.578;2022-08-20T00:02:54;13.27;;;10.18;;
23720;SDS011;42950;52.134;5.578;2022-08-20T00:05:27;15.32;;;10.35;;
23720;SDS011;42950;52.134;5.578;2022-08-20T00:07:55;11.60;;;10.50;;
23720;SDS011;42950;52.134;5.578;2022-08-20T00:10:22;12.15;;;10.00;;
23720;SDS011;42950;52.134;5.578;2022-08-20T00:12:49;13.90;;;10.85;;
23720;SDS011;42950;52.134;5.578;2022-08-20T00:15:17;11.00;;;9.43;;
23720;SDS011;42950;52.134;5.578;2022-08-20T00:17:45;10.70;;;8.88;;
23720;SDS011;42950;52.134;5.578;2022-08-20T00:20:15;10.68;;;9.38;;
23720;SDS011;42950;52.134;5.578;2022-08-20T00:22:42;11.70;;;10.52;;
23720;SDS011;42950;52.134;5.578;2022-08-20T00:25:08;12.15;;;10.77;;
23720;SDS011;42950;52.134;5.578;2022-08-20T00:27:35;15.98;;;11.35;;
23720;SDS011;42950;52.134;5.578;2022-08-20T00:30:00;12.65;;;10.85;;
23720;SDS011;42950;52.134;5.578;2022-08-20T00:32:28;11.13;;;9.70;;
23720;SDS011;42950;52.134;5.578;2022-08-20T00:34:54;14.65;;;10.68;;
23720;SDS011;42950;52.134;5.578;2022-08-20T00:37:19;11.65;;;10.43;;
23720;SDS011;42950;52.134;5.578;2022-08-20T00:39:45;13.18;;;11.00;;
23720;SDS011;42950;52.134;5.578;2022-08-20T00:42:10;12.68;;;10.63;;
23720;SDS011;42950;52.134;5.578;2022-08-20T00:44:36;12.02;;;10.68;;
23720;SDS011;42950;52.134;5.578;2022-08-20T00:47:10;12.48;;;10.98;;
23720;SDS011;42950;52.134;5.578;2022-08-20T00:49:35;13.43;;;10.60;;
23720;SDS011;42950;52.134;5.578;2022-08-20T00:54:33;14.38;;;10.43;;
23720;SDS011;42950;52.134;5.578;2022-08-20T00:57:17;13.15;;;11.50;;
23720;SDS011;42950;52.134;5.578;2022-08-20T00:59:52;13.25;;;11.18;;
23720;SDS011;42950;52.134;5.578;2022-08-20T01:02:20;15.00;;;11.18;;
23720;SDS011;42950;52.134;5.578;2022-08-20T01:04:49;17.80;;;12.27;;
23720;SDS011;42950;52.134;5.578;2022-08-20T01:07:21;15.90;;;11.77;;
23720;SDS011;42950;52.134;5.578;2022-08-20T01:09:56;14.52;;;11.00;;
23720;SDS011;42950;52.134;5.578;2022-08-20T01:12:23;17.10;;;11.43;;
23720;SDS011;42950;52.134;5.578;2022-08-20T01:14:49;19.48;;;13.80;;
23720;SDS011;42950;52.134;5.578;2022-08-20T01:17:17;14.35;;;12.65;;
23720;SDS011;42950;52.134;5.578;2022-08-20T01:19:57;16.45;;;13.48;;
23720;SDS011;42950;52.134;5.578;2022-08-20T01:22:39;17.48;;;12.95;;
23720;SDS011;42950;52.134;5.578;2022-08-20T01:25:48;17.33;;;13.18;;
23720;SDS011;42950;52.134;5.578;2022-08-20T01:28:18;16.30;;;13.13;;
23720;SDS011;42950;52.134;5.578;2022-08-20T01:30:47;13.77;;;12.27;;
23720;SDS011;42950;52.134;5.578;2022-08-20T01:33:13;15.10;;;11.43;;
23720;SDS011;42950;52.134;5.578;2022-08-20T01:35:40;15.05;;;12.25;;
23720;SDS011;42950;52.134;5.578;2022-08-20T01:38:07;15.27;;;12.65;;
23720;SDS011;42950;52.134;5.578;2022-08-20T01:43:08;17.70;;;12.63;;
23720;SDS011;42950;52.134;5.578;2022-08-20T01:45:35;19.42;;;13.52;;
23720;SDS011;42950;52.134;5.578;2022-08-20T01:48:01;16.00;;;13.05;;
23720;SDS011;42950;52.134;5.578;2022-08-20T01:50:28;16.60;;;12.27;;
23720;SDS011;42950;52.134;5.578;2022-08-20T01:52:58;18.17;;;13.63;;
23720;SDS011;42950;52.134;5.578;2022-08-20T01:55:30;22.85;;;14.18;;
23720;SDS011;42950;52.134;5.578;2022-08-20T01:57:56;19.33;;;11.40;;
23720;SDS011;42950;52.134;5.578;2022-08-20T02:00:23;17.27;;;13.18;;
23720;SDS011;42950;52.134;5.578;2022-08-20T02:02:49;15.27;;;12.70;;
23720;SDS011;42950;52.134;5.578;2022-08-20T02:05:15;21.77;;;12.90;;
23720;SDS011;42950;52.134;5.578;2022-08-20T02:07:40;16.30;;;12.43;;
23720;SDS011;42950;52.134;5.578;2022-08-20T02:10:07;18.75;;;13.73;;
23720;SDS011;42950;52.134;5.578;2022-08-20T02:12:35;22.15;;;13.60;;
23720;SDS011;42950;52.134;5.578;2022-08-20T02:15:01;15.70;;;13.18;;
23720;SDS011;42950;52.134;5.578;2022-08-20T02:17:29;17.65;;;13.43;;
23720;SDS011;42950;52.134;5.578;2022-08-20T02:19:58;17.92;;;13.23;;
23720;SDS011;42950;52.134;5.578;2022-08-20T02:22:32;17.08;;;13.25;;
23720;SDS011;42950;52.134;5.578;2022-08-20T02:24:59;18.50;;;12.68;;
23720;SDS011;42950;52.134;5.578;2022-08-20T02:27:24;13.88;;;10.93;;
23720;SDS011;42950;52.134;5.578;2022-08-20T02:29:50;13.02;;;10.80;;
23720;SDS011;42950;52.134;5.578;2022-08-20T02:32:17;17.05;;;11.50;;
23720;SDS011;42950;52.134;5.578;2022-08-20T02:34:43;15.23;;;11.77;;
23720;SDS011;42950;52.134;5.578;2022-08-20T02:37:09;15.23;;;11.23;;
23720;SDS011;42950;52.134;5.578;2022-08-20T02:39:35;14.75;;;12.57;;
23720;SDS011;42950;52.134;5.578;2022-08-20T02:42:01;17.27;;;12.35;;
23720;SDS011;42950;52.134;5.578;2022-08-20T02:44:28;18.00;;;12.75;;
23720;SDS011;42950;52.134;5.578;2022-08-20T02:46:54;18.33;;;12.88;;
23720;SDS011;42950;52.134;5.578;2022-08-20T02:49:19;17.23;;;12.98;;
23720;SDS011;42950;52.134;5.578;2022-08-20T02:51:45;18.98;;;13.57;;
23720;SDS011;42950;52.134;5.578;2022-08-20T02:54:11;20.17;;;13.85;;
23720;SDS011;42950;52.134;5.578;2022-08-20T02:56:37;18.88;;;14.02;;
23720;SDS011;42950;52.134;5.578;2022-08-20T02:59:03;17.55;;;13.27;;
23720;SDS011;42950;52.134;5.578;2022-08-20T03:01:30;13.88;;;11.73;;
23720;SDS011;42950;52.134;5.578;2022-08-20T03:03:55;15.43;;;11.20;;
23720;SDS011;42950;52.134;5.578;2022-08-20T03:06:23;11.52;;;8.75;;
23720;SDS011;42950;52.134;5.578;2022-08-20T03:08:49;12.02;;;9.65;;
23720;SDS011;42950;52.134;5.578;2022-08-20T03:11:15;15.98;;;10.25;;
23720;SDS011;42950;52.134;5.578;2022-08-20T03:13:41;11.02;;;9.35;;
23720;SDS011;42950;52.134;5.578;2022-08-20T03:16:07;11.93;;;9.73;;
23720;SDS011;42950;52.134;5.578;2022-08-20T03:18:36;17.23;;;9.15;;
23720;SDS011;42950;52.134;5.578;2022-08-20T03:21:04;12.02;;;9.00;;
23720;SDS011;42950;52.134;5.578;2022-08-20T03:23:31;14.68;;;10.00;;
23720;SDS011;42950;52.134;5.578;2022-08-20T03:25:58;15.27;;;10.00;;
23720;SDS011;42950;52.134;5.578;2022-08-20T03:28:24;12.00;;;9.10;;
23720;SDS011;42950;52.134;5.578;2022-08-20T03:30:50;16.33;;;9.63;;
23720;SDS011;42950;52.134;5.578;2022-08-20T03:33:17;13.98;;;9.27;;
23720;SDS011;42950;52.134;5.578;2022-08-20T03:35:44;13.05;;;8.95;;
23720;SDS011;42950;52.134;5.578;2022-08-20T03:38:11;11.63;;;8.73;;
23720;SDS011;42950;52.134;5.578;2022-08-20T03:40:39;17.15;;;9.75;;
23720;SDS011;42950;52.134;5.578;2022-08-20T03:43:05;14.63;;;9.13;;
23720;SDS011;42950;52.134;5.578;2022-08-20T03:45:36;12.27;;;9.10;;
23720;SDS011;42950;52.134;5.578;2022-08-20T03:48:03;14.88;;;9.65;;
23720;SDS011;42950;52.134;5.578;2022-08-20T03:50:31;11.30;;;8.23;;
23720;SDS011;42950;52.134;5.578;2022-08-20T03:52:58;10.80;;;8.35;;
23720;SDS011;42950;52.134;5.578;2022-08-20T03:55:24;11.20;;;8.88;;
23720;SDS011;42950;52.134;5.578;2022-08-20T03:57:53;10.98;;;8.23;;
23720;SDS011;42950;52.134;5.578;2022-08-20T04:00:27;11.30;;;8.50;;
23720;SDS011;42950;52.134;5.578;2022-08-20T04:03:26;11.38;;;9.13;;
23720;SDS011;42950;52.134;5.578;2022-08-20T04:05:52;10.63;;;8.63;;
23720;SDS011;42950;52.134;5.578;2022-08-20T04:08:19;14.88;;;9.43;;
23720;SDS011;42950;52.134;5.578;2022-08-20T04:10:48;10.57;;;9.48;;
23720;SDS011;42950;52.134;5.578;2022-08-20T04:13:15;10.68;;;8.63;;
23720;SDS011;42950;52.134;5.578;2022-08-20T04:15:44;14.65;;;9.05;;
23720;SDS011;42950;52.134;5.578;2022-08-20T04:18:10;9.43;;;7.50;;
23720;SDS011;42950;52.134;5.578;2022-08-20T04:20:38;9.80;;;8.50;;
23720;SDS011;42950;52.134;5.578;2022-08-20T04:23:06;11.82;;;9.23;;
23720;SDS011;42950;52.134;5.578;2022-08-20T04:25:33;10.45;;;9.13;;
23720;SDS011;42950;52.134;5.578;2022-08-20T04:28:00;11.20;;;8.70;;
23720;SDS011;42950;52.134;5.578;2022-08-20T04:30:29;11.77;;;8.60;;
23720;SDS011;42950;52.134;5.578;2022-08-20T04:32:55;10.05;;;8.55;;
23720;SDS011;42950;52.134;5.578;2022-08-20T04:35:20;10.75;;;8.35;;
23720;SDS011;42950;52.134;5.578;2022-08-20T04:37:49;12.10;;;9.05;;
23720;SDS011;42950;52.134;5.578;2022-08-20T04:40:21;20.25;;;8.65;;
23720;SDS011;42950;52.134;5.578;2022-08-20T04:43:05;13.60;;;9.52;;
23720;SDS011;42950;52.134;5.578;2022-08-20T04:45:31;9.73;;;8.75;;
23720;SDS011;42950;52.134;5.578;2022-08-20T04:47:59;11.68;;;8.48;;
23720;SDS011;42950;52.134;5.578;2022-08-20T04:50:29;10.57;;;8.13;;
23720;SDS011;42950;52.134;5.578;2022-08-20T04:52:59;13.13;;;9.45;;
23720;SDS011;42950;52.134;5.578;2022-08-20T04:55:24;9.35;;;7.13;;
23720;SDS011;42950;52.134;5.578;2022-08-20T04:57:50;11.40;;;8.38;;
23720;SDS011;42950;52.134;5.578;2022-08-20T05:00:16;10.18;;;8.13;;
23720;SDS011;42950;52.134;5.578;2022-08-20T05:02:42;12.88;;;8.93;;
23720;SDS011;42950;52.134;5.578;2022-08-20T05:05:08;13.15;;;9.68;;
23720;SDS011;42950;52.134;5.578;2022-08-20T05:07:42;11.82;;;8.70;;
23720;SDS011;42950;52.134;5.578;2022-08-20T05:10:12;9.80;;;8.73;;
23720;SDS011;42950;52.134;5.578;2022-08-20T05:12:40;10.63;;;9.48;;
23720;SDS011;42950;52.134;5.578;2022-08-20T05:15:06;11.88;;;9.43;;
23720;SDS011;42950;52.134;5.578;2022-08-20T05:17:35;14.48;;;10.27;;
23720;SDS011;42950;52.134;5.578;2022-08-20T05:20:01;13.40;;;10.55;;
23720;SDS011;42950;52.134;5.578;2022-08-20T05:22:28;18.30;;;11.70;;
23720;SDS011;42950;52.134;5.578;2022-08-20T05:24:54;16.48;;;11.10;;
23720;SDS011;42950;52.134;5.578;2022-08-20T05:27:21;13.30;;;9.98;;
23720;SDS011;42950;52.134;5.578;2022-08-20T05:29:50;14.90;;;10.25;;
23720;SDS011;42950;52.134;5.578;2022-08-20T05:32:29;13.98;;;11.25;;
23720;SDS011;42950;52.134;5.578;2022-08-20T05:34:55;15.15;;;11.18;;
23720;SDS011;42950;52.134;5.578;2022-08-20T05:37:21;16.30;;;10.82;;
23720;SDS011;42950;52.134;5.578;2022-08-20T05:39:47;15.75;;;10.75;;
23720;SDS011;42950;52.134;5.578;2022-08-20T05:42:12;13.05;;;10.73;;
23720;SDS011;42950;52.134;5.578;2022-08-20T05:44:38;14.18;;;11.07;;
23720;SDS011;42950;52.134;5.578;2022-08-20T05:47:03;13.98;;;10.90;;
23720;SDS011;42950;52.134;5.578;2022-08-20T05:49:29;12.65;;;10.20;;
23720;SDS011;42950;52.134;5.578;2022-08-20T05:51:56;12.98;;;9.30;;
23720;SDS011;42950;52.134;5.578;2022-08-20T05:54:23;13.23;;;10.80;;
23720;SDS011;42950;52.134;5.578;2022-08-20T05:56:49;12.02;;;10.52;;
23720;SDS011;42950;52.134;5.578;2022-08-20T05:59:15;14.65;;;11.27;;
23720;SDS011;42950;52.134;5.578;2022-08-20T06:01:41;15.05;;;10.30;;
23720;SDS011;42950;52.134;5.578;2022-08-20T06:04:07;16.08;;;12.10;;
23720;SDS011;42950;52.134;5.578;2022-08-20T06:06:48;14.30;;;10.85;;
23720;SDS011;42950;52.134;5.578;2022-08-20T06:09:20;14.13;;;11.38;;
23720;SDS011;42950;52.134;5.578;2022-08-20T06:11:47;16.83;;;10.63;;
23720;SDS011;42950;52.134;5.578;2022-08-20T06:14:13;17.60;;;11.13;;
23720;SDS011;42950;52.134;5.578;2022-08-20T06:16:40;16.20;;;11.32;;
23720;SDS011;42950;52.134;5.578;2022-08-20T06:19:06;16.65;;;10.90;;
23720;SDS011;42950;52.134;5.578;2022-08-20T06:21:31;14.02;;;10.30;;
23720;SDS011;42950;52.134;5.578;2022-08-20T06:23:57;12.30;;;11.10;;
23720;SDS011;42950;52.134;5.578;2022-08-20T06:26:22;16.15;;;11.55;;
23720;SDS011;42950;52.134;5.578;2022-08-20T06:28:48;15.52;;;10.23;;
23720;SDS011;42950;52.134;5.578;2022-08-20T06:31:14;20.38;;;11.52;;
23720;SDS011;42950;52.134;5.578;2022-08-20T06:33:39;17.13;;;10.43;;
23720;SDS011;42950;52.134;5.578;2022-08-20T06:36:05;17.52;;;10.38;;
23720;SDS011;42950;52.134;5.578;2022-08-20T06:38:31;12.15;;;10.18;;
23720;SDS011;42950;52.134;5.578;2022-08-20T06:40:56;14.13;;;10.55;;
23720;SDS011;42950;52.134;5.578;2022-08-20T06:43:23;11.68;;;10.10;;
23720;SDS011;42950;52.134;5.578;2022-08-20T06:45:48;11.85;;;10.10;;
23720;SDS011;42950;52.134;5.578;2022-08-20T06:48:14;15.85;;;9.88;;
23720;SDS011;42950;52.134;5.578;2022-08-20T06:50:42;13.45;;;9.52;;
23720;SDS011;42950;52.134;5.578;2022-08-20T06:53:10;14.75;;;10.05;;
23720;SDS011;42950;52.134;5.578;2022-08-20T06:55:38;12.93;;;9.30;;
23720;SDS011;42950;52.134;5.578;2022-08-20T06:58:07;12.27;;;7.53;;
23720;SDS011;42950;52.134;5.578;2022-08-20T07:00:35;13.20;;;7.55;;
23720;SDS011;42950;52.134;5.578;2022-08-20T07:03:02;12.75;;;8.40;;
23720;SDS011;42950;52.134;5.578;2022-08-20T07:05:29;13.00;;;8.13;;
23720;SDS011;42950;52.134;5.578;2022-08-20T07:08:00;16.85;;;7.50;;
23720;SDS011;42950;52.134;5.578;2022-08-20T07:10:27;12.65;;;7.97;;
23720;SDS011;42950;52.134;5.578;2022-08-20T07:12:54;14.75;;;8.63;;
23720;SDS011;42950;52.134;5.578;2022-08-20T07:15:21;16.05;;;8.98;;
23720;SDS011;42950;52.134;5.578;2022-08-20T07:17:54;12.48;;;7.82;;
23720;SDS011;42950;52.134;5.578;2022-08-20T07:20:21;10.18;;;5.30;;
23720;SDS011;42950;52.134;5.578;2022-08-20T07:22:47;11.18;;;5.30;;
23720;SDS011;42950;52.134;5.578;2022-08-20T07:25:13;9.02;;;5.05;;
23720;SDS011;42950;52.134;5.578;2022-08-20T07:27:41;8.70;;;5.40;;
23720;SDS011;42950;52.134;5.578;2022-08-20T07:30:08;11.57;;;5.03;;
23720;SDS011;42950;52.134;5.578;2022-08-20T07:32:55;13.57;;;4.22;;
23720;SDS011;42950;52.134;5.578;2022-08-20T07:35:21;11.20;;;3.60;;
23720;SDS011;42950;52.134;5.578;2022-08-20T07:37:49;10.63;;;3.20;;
23720;SDS011;42950;52.134;5.578;2022-08-20T07:40:29;11.80;;;3.45;;
23720;SDS011;42950;52.134;5.578;2022-08-20T07:42:58;9.75;;;3.53;;
23720;SDS011;42950;52.134;5.578;2022-08-20T07:45:25;14.45;;;5.00;;
23720;SDS011;42950;52.134;5.578;2022-08-20T07:47:51;20.60;;;7.43;;
23720;SDS011;42950;52.134;5.578;2022-08-20T07:50:18;15.13;;;6.88;;
23720;SDS011;42950;52.134;5.578;2022-08-20T07:52:47;11.10;;;4.93;;
23720;SDS011;42950;52.134;5.578;2022-08-20T07:55:17;10.38;;;3.10;;
23720;SDS011;42950;52.134;5.578;2022-08-20T07:57:43;11.35;;;2.85;;
23720;SDS011;42950;52.134;5.578;2022-08-20T08:00:11;11.55;;;2.58;;
23720;SDS011;42950;52.134;5.578;2022-08-20T08:02:37;12.10;;;2.30;;
23720;SDS011;42950;52.134;5.578;2022-08-20T08:05:04;8.30;;;2.03;;
23720;SDS011;42950;52.134;5.578;2022-08-20T08:07:30;8.15;;;2.35;;
23720;SDS011;42950;52.134;5.578;2022-08-20T08:09:57;7.68;;;2.25;;
23720;SDS011;42950;52.134;5.578;2022-08-20T08:12:27;9.32;;;2.10;;
23720;SDS011;42950;52.134;5.578;2022-08-20T08:14:59;11.88;;;2.58;;
23720;SDS011;42950;52.134;5.578;2022-08-20T08:17:24;12.15;;;2.50;;
23720;SDS011;42950;52.134;5.578;2022-08-20T08:19:50;10.30;;;2.42;;
23720;SDS011;42950;52.134;5.578;2022-08-20T08:22:16;10.77;;;2.30;;
23720;SDS011;42950;52.134;5.578;2022-08-20T08:24:44;6.47;;;2.40;;
23720;SDS011;42950;52.134;5.578;2022-08-20T08:27:11;12.25;;;2.50;;
23720;SDS011;42950;52.134;5.578;2022-08-20T08:29:38;11.30;;;2.72;;
23720;SDS011;42950;52.134;5.578;2022-08-20T08:32:04;7.30;;;2.20;;
23720;SDS011;42950;52.134;5.578;2022-08-20T08:34:30;7.32;;;2.05;;
23720;SDS011;42950;52.134;5.578;2022-08-20T08:36:58;12.02;;;2.17;;
23720;SDS011;42950;52.134;5.578;2022-08-20T08:39:26;8.90;;;2.65;;
23720;SDS011;42950;52.134;5.578;2022-08-20T08:41:53;9.13;;;2.28;;
23720;SDS011;42950;52.134;5.578;2022-08-20T08:44:24;13.75;;;2.35;;
23720;SDS011;42950;52.134;5.578;2022-08-20T08:46:57;9.48;;;2.42;;
23720;SDS011;42950;52.134;5.578;2022-08-20T08:49:42;9.32;;;2.42;;
23720;SDS011;42950;52.134;5.578;2022-08-20T08:52:15;8.65;;;2.05;;
23720;SDS011;42950;52.134;5.578;2022-08-20T08:54:49;10.27;;;1.92;;
23720;SDS011;42950;52.134;5.578;2022-08-20T08:57:18;7.93;;;1.85;;
23720;SDS011;42950;52.134;5.578;2022-08-20T08:59:44;11.50;;;1.92;;
23720;SDS011;42950;52.134;5.578;2022-08-20T09:02:20;8.13;;;1.88;;
23720;SDS011;42950;52.134;5.578;2022-08-20T09:04:49;5.88;;;1.58;;
23720;SDS011;42950;52.134;5.578;2022-08-20T09:07:20;10.80;;;1.88;;
23720;SDS011;42950;52.134;5.578;2022-08-20T09:09:48;7.97;;;2.22;;
23720;SDS011;42950;52.134;5.578;2022-08-20T09:12:16;9.85;;;2.10;;
23720;SDS011;42950;52.134;5.578;2022-08-20T09:14:47;10.18;;;2.08;;
23720;SDS011;42950;52.134;5.578;2022-08-20T09:17:15;8.32;;;1.52;;
23720;SDS011;42950;52.134;5.578;2022-08-20T09:19:42;11.65;;;2.42;;
23720;SDS011;42950;52.134;5.578;2022-08-20T09:22:09;7.38;;;1.80;;
23720;SDS011;42950;52.134;5.578;2022-08-20T09:24:36;6.43;;;1.70;;
23720;SDS011;42950;52.134;5.578;2022-08-20T09:27:03;8.00;;;1.80;;
23720;SDS011;42950;52.134;5.578;2022-08-20T09:29:29;7.88;;;2.15;;
23720;SDS011;42950;52.134;5.578;2022-08-20T09:34:44;6.43;;;1.77;;
23720;SDS011;42950;52.134;5.578;2022-08-20T09:37:12;7.15;;;1.63;;
23720;SDS011;42950;52.134;5.578;2022-08-20T09:39:38;7.32;;;1.75;;
23720;SDS011;42950;52.134;5.578;2022-08-20T09:42:05;6.57;;;1.75;;
23720;SDS011;42950;52.134;5.578;2022-08-20T09:44:35;7.30;;;1.50;;
23720;SDS011;42950;52.134;5.578;2022-08-20T09:47:01;7.07;;;1.75;;
23720;SDS011;42950;52.134;5.578;2022-08-20T09:49:26;5.78;;;1.58;;
23720;SDS011;42950;52.134;5.578;2022-08-20T09:51:52;8.25;;;1.60;;
23720;SDS011;42950;52.134;5.578;2022-08-20T09:54:18;8.18;;;1.70;;
23720;SDS011;42950;52.134;5.578;2022-08-20T09:56:44;6.70;;;1.52;;
23720;SDS011;42950;52.134;5.578;2022-08-20T09:59:10;8.75;;;2.00;;
23720;SDS011;42950;52.134;5.578;2022-08-20T10:01:38;5.65;;;1.92;;
23720;SDS011;42950;52.134;5.578;2022-08-20T10:04:04;10.02;;;1.80;;
23720;SDS011;42950;52.134;5.578;2022-08-20T10:06:29;11.75;;;1.95;;
23720;SDS011;42950;52.134;5.578;2022-08-20T10:08:55;7.82;;;1.70;;
23720;SDS011;42950;52.134;5.578;2022-08-20T10:11:20;8.32;;;2.00;;
23720;SDS011;42950;52.134;5.578;2022-08-20T10:13:46;6.15;;;1.73;;
23720;SDS011;42950;52.134;5.578;2022-08-20T10:16:11;9.30;;;1.80;;
23720;SDS011;42950;52.134;5.578;2022-08-20T10:18:37;9.13;;;2.10;;
23720;SDS011;42950;52.134;5.578;2022-08-20T10:21:07;7.53;;;1.80;;
23720;SDS011;42950;52.134;5.578;2022-08-20T10:23:36;6.18;;;1.73;;
23720;SDS011;42950;52.134;5.578;2022-08-20T10:26:02;5.78;;;1.80;;
23720;SDS011;42950;52.134;5.578;2022-08-20T10:28:28;5.65;;;1.25;;
23720;SDS011;42950;52.134;5.578;2022-08-20T10:30:53;6.80;;;1.40;;
23720;SDS011;42950;52.134;5.578;2022-08-20T10:33:19;9.63;;;1.70;;
23720;SDS011;42950;52.134;5.578;2022-08-20T10:35:44;6.78;;;1.33;;
23720;SDS011;42950;52.134;5.578;2022-08-20T10:38:10;7.00;;;1.90;;
23720;SDS011;42950;52.134;5.578;2022-08-20T10:40:35;6.57;;;1.40;;
23720;SDS011;42950;52.134;5.578;2022-08-20T10:43:01;4.57;;;1.50;;
23720;SDS011;42950;52.134;5.578;2022-08-20T10:45:27;6.22;;;1.42;;
23720;SDS011;42950;52.134;5.578;2022-08-20T10:47:52;9.73;;;1.63;;
23720;SDS011;42950;52.134;5.578;2022-08-20T10:50:18;6.20;;;1.42;;
23720;SDS011;42950;52.134;5.578;2022-08-20T10:52:44;6.32;;;1.73;;
23720;SDS011;42950;52.134;5.578;2022-08-20T10:55:10;9.73;;;1.50;;
23720;SDS011;42950;52.134;5.578;2022-08-20T10:57:37;12.27;;;1.83;;
23720;SDS011;42950;52.134;5.578;2022-08-20T11:00:04;8.57;;;1.90;;
23720;SDS011;42950;52.134;5.578;2022-08-20T11:02:32;5.75;;;1.45;;
23720;SDS011;42950;52.134;5.578;2022-08-20T11:04:57;10.52;;;1.60;;
23720;SDS011;42950;52.134;5.578;2022-08-20T11:07:27;8.02;;;1.67;;
23720;SDS011;42950;52.134;5.578;2022-08-20T11:09:55;6.85;;;1.75;;
23720;SDS011;42950;52.134;5.578;2022-08-20T11:12:21;6.32;;;1.67;;
23720;SDS011;42950;52.134;5.578;2022-08-20T11:14:47;7.80;;;1.80;;
23720;SDS011;42950;52.134;5.578;2022-08-20T11:17:21;7.35;;;1.70;;
23720;SDS011;42950;52.134;5.578;2022-08-20T11:19:49;8.57;;;1.83;;
23720;SDS011;42950;52.134;5.578;2022-08-20T11:22:15;8.95;;;1.92;;
23720;SDS011;42950;52.134;5.578;2022-08-20T11:24:41;9.68;;;2.00;;
23720;SDS011;42950;52.134;5.578;2022-08-20T11:27:07;8.93;;;2.40;;
23720;SDS011;42950;52.134;5.578;2022-08-20T11:29:33;7.22;;;1.80;;
23720;SDS011;42950;52.134;5.578;2022-08-20T11:31:59;6.10;;;1.65;;
23720;SDS011;42950;52.134;5.578;2022-08-20T11:34:25;6.95;;;1.95;;
23720;SDS011;42950;52.134;5.578;2022-08-20T11:36:51;10.95;;;2.00;;
23720;SDS011;42950;52.134;5.578;2022-08-20T11:39:17;8.15;;;1.80;;
23720;SDS011;42950;52.134;5.578;2022-08-20T11:41:43;8.60;;;2.30;;
23720;SDS011;42950;52.134;5.578;2022-08-20T11:44:09;7.38;;;1.83;;
23720;SDS011;42950;52.134;5.578;2022-08-20T11:46:35;10.60;;;2.05;;
23720;SDS011;42950;52.134;5.578;2022-08-20T11:49:01;8.15;;;2.05;;
23720;SDS011;42950;52.134;5.578;2022-08-20T11:51:27;10.00;;;1.88;;
23720;SDS011;42950;52.134;5.578;2022-08-20T11:53:52;9.75;;;2.35;;
23720;SDS011;42950;52.134;5.578;2022-08-20T11:56:18;7.55;;;1.63;;
23720;SDS011;42950;52.134;5.578;2022-08-20T11:58:44;7.45;;;1.60;;
23720;SDS011;42950;52.134;5.578;2022-08-20T12:01:10;6.28;;;1.42;;
23720;SDS011;42950;52.134;5.578;2022-08-20T12:03:36;8.45;;;1.80;;
23720;SDS011;42950;52.134;5.578;2022-08-20T12:06:01;9.25;;;2.28;;
23720;SDS011;42950;52.134;5.578;2022-08-20T12:08:27;7.45;;;1.90;;
23720;SDS011;42950;52.134;5.578;2022-08-20T12:10:54;7.28;;;1.77;;
23720;SDS011;42950;52.134;5.578;2022-08-20T12:13:24;6.95;;;1.77;;
23720;SDS011;42950;52.134;5.578;2022-08-20T12:15:52;6.68;;;1.80;;
23720;SDS011;42950;52.134;5.578;2022-08-20T12:18:18;6.88;;;1.92;;
23720;SDS011;42950;52.134;5.578;2022-08-20T12:20:44;7.35;;;1.90;;
23720;SDS011;42950;52.134;5.578;2022-08-20T12:23:10;8.93;;;1.70;;
23720;SDS011;42950;52.134;5.578;2022-08-20T12:25:36;5.15;;;1.30;;
23720;SDS011;42950;52.134;5.578;2022-08-20T12:28:01;8.57;;;1.80;;
23720;SDS011;42950;52.134;5.578;2022-08-20T12:30:29;6.60;;;1.80;;
23720;SDS011;42950;52.134;5.578;2022-08-20T12:32:55;6.00;;;1.83;;
23720;SDS011;42950;52.134;5.578;2022-08-20T12:35:21;5.25;;;1.60;;
23720;SDS011;42950;52.134;5.578;2022-08-20T12:37:46;7.90;;;1.52;;
23720;SDS011;42950;52.134;5.578;2022-08-20T12:40:14;7.40;;;2.10;;
23720;SDS011;42950;52.134;5.578;2022-08-20T12:42:42;4.85;;;1.67;;
23720;SDS011;42950;52.134;5.578;2022-08-20T12:45:08;7.60;;;2.00;;
23720;SDS011;42950;52.134;5.578;2022-08-20T12:47:36;7.75;;;1.80;;
23720;SDS011;42950;52.134;5.578;2022-08-20T12:50:13;5.57;;;1.90;;
23720;SDS011;42950;52.134;5.578;2022-08-20T12:52:44;6.95;;;1.88;;
23720;SDS011;42950;52.134;5.578;2022-08-20T12:55:12;9.80;;;1.98;;
23720;SDS011;42950;52.134;5.578;2022-08-20T13:00:12;5.85;;;1.92;;
23720;SDS011;42950;52.134;5.578;2022-08-20T13:02:44;5.32;;;1.48;;
23720;SDS011;42950;52.134;5.578;2022-08-20T13:05:10;6.38;;;1.77;;
23720;SDS011;42950;52.134;5.578;2022-08-20T13:07:37;7.50;;;1.63;;
23720;SDS011;42950;52.134;5.578;2022-08-20T13:10:04;6.47;;;2.00;;
23720;SDS011;42950;52.134;5.578;2022-08-20T13:12:31;9.05;;;2.28;;
23720;SDS011;42950;52.134;5.578;2022-08-20T13:14:56;8.63;;;2.30;;
23720;SDS011;42950;52.134;5.578;2022-08-20T13:17:22;8.80;;;2.30;;
23720;SDS011;42950;52.134;5.578;2022-08-20T13:19:47;7.18;;;1.85;;
23720;SDS011;42950;52.134;5.578;2022-08-20T13:22:13;7.30;;;1.70;;
23720;SDS011;42950;52.134;5.578;2022-08-20T13:24:39;7.90;;;1.85;;
23720;SDS011;42950;52.134;5.578;2022-08-20T13:27:06;6.75;;;2.17;;
23720;SDS011;42950;52.134;5.578;2022-08-20T13:29:33;8.00;;;2.00;;
23720;SDS011;42950;52.134;5.578;2022-08-20T13:31:59;11.27;;;2.45;;
23720;SDS011;42950;52.134;5.578;2022-08-20T13:34:24;6.10;;;1.63;;
23720;SDS011;42950;52.134;5.578;2022-08-20T13:36:50;8.30;;;2.10;;
23720;SDS011;42950;52.134;5.578;2022-08-20T13:39:15;9.38;;;2.13;;
23720;SDS011;42950;52.134;5.578;2022-08-20T13:41:41;6.22;;;2.00;;
23720;SDS011;42950;52.134;5.578;2022-08-20T13:44:07;8.23;;;1.90;;
23720;SDS011;42950;52.134;5.578;2022-08-20T13:46:34;7.97;;;2.13;;
23720;SDS011;42950;52.134;5.578;2022-08-20T13:48:59;5.35;;;1.63;;
23720;SDS011;42950;52.134;5.578;2022-08-20T13:51:25;8.02;;;2.10;;
23720;SDS011;42950;52.134;5.578;2022-08-20T13:53:50;9.30;;;2.28;;
23720;SDS011;42950;52.134;5.578;2022-08-20T13:56:16;9.18;;;2.28;;
23720;SDS011;42950;52.134;5.578;2022-08-20T13:58:42;10.20;;;2.40;;
23720;SDS011;42950;52.134;5.578;2022-08-20T14:01:07;9.25;;;2.38;;
23720;SDS011;42950;52.134;5.578;2022-08-20T14:03:33;11.55;;;2.25;;
23720;SDS011;42950;52.134;5.578;2022-08-20T14:05:59;12.75;;;2.47;;
23720;SDS011;42950;52.134;5.578;2022-08-20T14:08:26;10.60;;;2.38;;
23720;SDS011;42950;52.134;5.578;2022-08-20T14:10:51;12.65;;;2.45;;
23720;SDS011;42950;52.134;5.578;2022-08-20T14:13:17;9.82;;;2.70;;
23720;SDS011;42950;52.134;5.578;2022-08-20T14:15:46;8.57;;;2.28;;
23720;SDS011;42950;52.134;5.578;2022-08-20T14:18:12;8.82;;;2.55;;
23720;SDS011;42950;52.134;5.578;2022-08-20T14:20:39;11.90;;;2.28;;
23720;SDS011;42950;52.134;5.578;2022-08-20T14:23:06;11.43;;;2.65;;
23720;SDS011;42950;52.134;5.578;2022-08-20T14:25:31;11.95;;;2.60;;
23720;SDS011;42950;52.134;5.578;2022-08-20T14:27:57;10.75;;;2.70;;
23720;SDS011;42950;52.134;5.578;2022-08-20T14:30:32;8.02;;;2.30;;
23720;SDS011;42950;52.134;5.578;2022-08-20T14:32:57;9.85;;;2.38;;
23720;SDS011;42950;52.134;5.578;2022-08-20T14:35:23;8.35;;;2.20;;
23720;SDS011;42950;52.134;5.578;2022-08-20T14:37:50;7.90;;;2.33;;
23720;SDS011;42950;52.134;5.578;2022-08-20T14:40:17;11.07;;;2.67;;
23720;SDS011;42950;52.134;5.578;2022-08-20T14:42:43;8.85;;;2.47;;
23720;SDS011;42950;52.134;5.578;2022-08-20T14:45:10;8.48;;;2.42;;
23720;SDS011;42950;52.134;5.578;2022-08-20T14:47:38;11.85;;;2.60;;